createdAt,value
2023-05-23T00:01:49.772Z,100.00
2023-05-23T00:04:19.048Z,100.00
2023-05-23T00:06:47.277Z,100.00
2023-05-23T00:09:14.801Z,100.00
2023-05-23T00:11:45.496Z,100.00
2023-05-23T00:14:14.277Z,100.00
2023-05-23T00:16:45.705Z,100.00
2023-05-23T00:19:15.356Z,100.00
2023-05-23T00:21:48.336Z,100.00
2023-05-23T00:24:19.032Z,100.00
2023-05-23T00:26:46.337Z,100.00
2023-05-23T00:29:16.403Z,100.00
2023-05-23T00:31:46.914Z,100.00
2023-05-23T00:34:15.359Z,100.00
2023-05-23T00:36:44.381Z,100.00
2023-05-23T00:39:19.228Z,100.00
2023-05-23T00:41:52.581Z,100.00
2023-05-23T00:44:21.381Z,100.00
2023-05-23T00:46:52.437Z,100.00
2023-05-23T00:49:20.407Z,100.00
2023-05-23T00:51:49.916Z,100.00
2023-05-23T00:54:21.104Z,100.00
2023-05-23T00:56:48.865Z,100.00
2023-05-23T00:59:16.808Z,100.00
2023-05-23T01:01:47.305Z,100.00
2023-05-23T01:04:16.975Z,100.00
2023-05-23T01:06:47.317Z,100.00
2023-05-23T01:09:17.098Z,100.00
2023-05-23T01:12:11.683Z,100.00
2023-05-23T01:14:43.058Z,100.00
2023-05-23T01:17:17.942Z,100.00
2023-05-23T01:20:12.747Z,100.00
2023-05-23T01:23:01.023Z,100.00
2023-05-23T01:25:36.653Z,100.00
2023-05-23T01:28:08.614Z,100.00
2023-05-23T01:30:41.302Z,100.00
2023-05-23T01:33:09.789Z,100.00
2023-05-23T01:35:37.574Z,100.00
2023-05-23T01:38:04.339Z,100.00
2023-05-23T01:40:30.986Z,100.00
2023-05-23T01:42:58.336Z,100.00
2023-05-23T01:45:28.181Z,100.00
2023-05-23T01:47:57.355Z,100.00
2023-05-23T01:50:24.983Z,100.00
2023-05-23T01:52:52.530Z,100.00
2023-05-23T01:55:22.905Z,100.00
2023-05-23T01:57:55.536Z,100.00
2023-05-23T02:00:22.552Z,100.00
2023-05-23T02:02:49.426Z,100.00
2023-05-23T02:05:16.142Z,100.00
2023-05-23T02:07:42.835Z,100.00
2023-05-23T02:10:09.958Z,100.00
2023-05-23T02:12:36.709Z,100.00
2023-05-23T02:15:03.945Z,100.00
2023-05-23T02:17:30.902Z,100.00
2023-05-23T02:19:57.723Z,100.00
2023-05-23T02:22:25.826Z,100.00
2023-05-23T02:24:52.937Z,100.00
2023-05-23T02:27:19.857Z,100.00
2023-05-23T02:29:46.631Z,100.00
2023-05-23T02:32:13.458Z,100.00
2023-05-23T02:34:40.635Z,100.00
2023-05-23T02:37:07.621Z,100.00
2023-05-23T02:39:37.482Z,100.00
2023-05-23T02:42:04.964Z,100.00
2023-05-23T02:44:31.940Z,100.00
2023-05-23T02:46:58.610Z,100.00
2023-05-23T02:49:25.766Z,100.00
2023-05-23T02:51:52.659Z,100.00
2023-05-23T02:54:19.373Z,100.00
2023-05-23T02:56:46.844Z,100.00
2023-05-23T02:59:13.851Z,100.00
2023-05-23T03:01:40.786Z,100.00
2023-05-23T03:04:07.681Z,100.00
2023-05-23T03:06:36.826Z,100.00
2023-05-23T03:09:04.072Z,100.00
2023-05-23T03:11:31.093Z,100.00
2023-05-23T03:13:57.726Z,100.00
2023-05-23T03:16:24.680Z,100.00
2023-05-23T03:18:51.420Z,100.00
2023-05-23T03:21:18.195Z,100.00
2023-05-23T03:23:44.888Z,100.00
2023-05-23T03:26:11.897Z,100.00
2023-05-23T03:28:38.595Z,100.00
2023-05-23T03:31:05.369Z,100.00
2023-05-23T03:33:32.101Z,100.00
2023-05-23T03:35:58.871Z,100.00
2023-05-23T03:38:26.243Z,100.00
2023-05-23T03:40:52.918Z,100.00
2023-05-23T03:43:19.673Z,100.00
2023-05-23T03:45:46.435Z,100.00
2023-05-23T03:48:13.187Z,100.00
2023-05-23T03:50:40.037Z,100.00
2023-05-23T03:53:07.324Z,100.00
2023-05-23T03:55:34.440Z,100.00
2023-05-23T03:58:01.246Z,100.00
2023-05-23T04:00:27.999Z,100.00
2023-05-23T04:02:54.804Z,100.00
2023-05-23T04:05:21.815Z,100.00
2023-05-23T04:07:49.136Z,100.00
2023-05-23T04:10:17.157Z,100.00
2023-05-23T04:12:43.908Z,100.00
2023-05-23T04:15:11.444Z,100.00
2023-05-23T04:17:39.067Z,100.00
2023-05-23T04:20:09.683Z,100.00
2023-05-23T04:22:36.582Z,100.00
2023-05-23T04:25:03.986Z,100.00
2023-05-23T04:27:30.972Z,100.00
2023-05-23T04:29:58.849Z,100.00
2023-05-23T04:32:26.291Z,100.00
2023-05-23T04:34:53.132Z,100.00
2023-05-23T04:37:26.197Z,100.00
2023-05-23T04:39:53.231Z,100.00
2023-05-23T04:42:24.964Z,100.00
2023-05-23T04:44:52.872Z,100.00
2023-05-23T04:47:19.717Z,100.00
2023-05-23T04:49:46.472Z,100.00
2023-05-23T04:52:13.499Z,100.00
2023-05-23T04:54:44.800Z,100.00
2023-05-23T04:57:12.499Z,100.00
2023-05-23T04:59:39.533Z,100.00
2023-05-23T05:02:06.876Z,100.00
2023-05-23T05:04:33.606Z,100.00
2023-05-23T05:07:00.658Z,100.00
2023-05-23T05:09:27.399Z,100.00
2023-05-23T05:11:54.153Z,100.00
2023-05-23T05:14:20.804Z,100.00
2023-05-23T05:16:48.815Z,100.00
2023-05-23T05:19:15.707Z,100.00
2023-05-23T05:21:42.415Z,100.00
2023-05-23T05:24:12.932Z,100.00
2023-05-23T05:26:39.737Z,100.00
2023-05-23T05:29:06.446Z,100.00
2023-05-23T05:31:33.258Z,100.00
2023-05-23T05:34:00.064Z,100.00
2023-05-23T05:36:26.801Z,100.00
2023-05-23T05:38:53.499Z,100.00
2023-05-23T05:41:20.450Z,100.00
2023-05-23T05:43:47.180Z,100.00
2023-05-23T05:46:14.007Z,100.00
2023-05-23T05:48:41.027Z,100.00
2023-05-23T05:51:07.723Z,100.00
2023-05-23T05:53:34.583Z,100.00
2023-05-23T05:56:01.369Z,100.00
2023-05-23T05:58:28.031Z,100.00
2023-05-23T06:00:55.302Z,100.00
2023-05-23T06:03:22.183Z,100.00
2023-05-23T06:05:49.068Z,100.00
2023-05-23T06:08:15.809Z,100.00
2023-05-23T06:10:42.959Z,100.00
2023-05-23T06:13:10.220Z,100.00
2023-05-23T06:15:36.923Z,100.00
2023-05-23T06:18:03.637Z,100.00
2023-05-23T06:20:30.487Z,100.00
2023-05-23T06:22:57.220Z,100.00
2023-05-23T06:25:23.880Z,100.00
2023-05-23T06:27:50.609Z,100.00
2023-05-23T06:30:17.546Z,100.00
2023-05-23T06:32:44.383Z,100.00
2023-05-23T06:35:11.168Z,100.00
2023-05-23T06:37:37.865Z,100.00
2023-05-23T06:40:05.643Z,100.00
2023-05-23T06:42:32.545Z,100.00
2023-05-23T06:44:59.229Z,100.00
2023-05-23T06:47:25.892Z,100.00
2023-05-23T06:49:53.114Z,100.00
2023-05-23T06:52:19.781Z,100.00
2023-05-23T06:54:46.523Z,100.00
2023-05-23T06:57:13.267Z,100.00
2023-05-23T06:59:39.916Z,100.00
2023-05-23T07:02:06.779Z,100.00
2023-05-23T07:04:33.504Z,100.00
2023-05-23T07:07:00.277Z,100.00
2023-05-23T07:09:26.988Z,100.00
2023-05-23T07:11:54.170Z,100.00
2023-05-23T07:14:21.019Z,100.00
2023-05-23T07:16:47.994Z,100.00
2023-05-23T07:19:14.755Z,98.90
2023-05-23T07:21:41.508Z,99.15
2023-05-23T07:24:08.174Z,100.00
2023-05-23T07:26:34.971Z,99.41
2023-05-23T07:29:01.857Z,98.57
2023-05-23T07:31:28.565Z,100.00
2023-05-23T07:33:56.911Z,84.24
2023-05-23T07:36:23.869Z,93.23
2023-05-23T07:38:50.601Z,81.03
2023-05-23T07:41:17.404Z,80.73
2023-05-23T07:43:44.133Z,92.84
2023-05-23T07:46:11.130Z,88.37
2023-05-23T07:48:37.869Z,83.74
2023-05-23T07:51:05.002Z,84.94
2023-05-23T07:53:31.762Z,66.71
2023-05-23T07:55:58.443Z,70.39
2023-05-23T07:58:25.137Z,71.05
2023-05-23T08:00:53.152Z,69.63
2023-05-23T08:03:20.277Z,67.52
2023-05-23T08:05:47.848Z,65.95
2023-05-23T08:08:14.613Z,64.17
2023-05-23T08:10:43.383Z,62.53
2023-05-23T08:13:10.495Z,70.33
2023-05-23T08:15:37.330Z,68.73
2023-05-23T08:18:04.964Z,70.44
2023-05-23T08:20:32.417Z,68.74
2023-05-23T08:23:00.386Z,67.17
2023-05-23T08:25:31.242Z,67.98
2023-05-23T08:27:58.898Z,68.55
2023-05-23T08:30:27.268Z,71.94
2023-05-23T08:32:55.835Z,70.80
2023-05-23T08:35:23.272Z,70.73
2023-05-23T08:37:50.969Z,67.04
2023-05-23T08:40:23.287Z,73.29
2023-05-23T08:42:51.133Z,69.05
2023-05-23T08:45:18.581Z,68.30
2023-05-23T08:47:51.560Z,69.42
2023-05-23T08:50:22.614Z,68.86
2023-05-23T08:52:57.526Z,66.46
2023-05-23T08:55:29.978Z,69.80
2023-05-23T08:58:00.277Z,63.09
2023-05-23T09:00:28.098Z,65.19
2023-05-23T09:02:55.389Z,67.88
2023-05-23T09:05:22.710Z,67.35
2023-05-23T09:07:51.284Z,67.35
2023-05-23T09:10:22.469Z,66.90
2023-05-23T09:12:49.764Z,64.08
2023-05-23T09:15:17.553Z,59.28
2023-05-23T09:17:45.070Z,62.05
2023-05-23T09:20:14.829Z,65.52
2023-05-23T09:22:46.049Z,66.24
2023-05-23T09:25:13.599Z,67.23
2023-05-23T09:27:40.424Z,70.13
2023-05-23T09:30:12.594Z,72.56
2023-05-23T09:32:40.667Z,72.49
2023-05-23T09:35:16.253Z,76.09
2023-05-23T09:37:49.183Z,79.36
2023-05-23T09:40:16.849Z,84.11
2023-05-23T09:42:45.479Z,91.15
2023-05-23T09:45:15.078Z,88.04
2023-05-23T09:47:53.010Z,94.98
2023-05-23T09:50:21.791Z,100.00
2023-05-23T09:52:49.421Z,100.00
2023-05-23T09:55:16.404Z,100.00
2023-05-23T09:57:44.326Z,100.00
2023-05-23T10:00:14.403Z,100.00
2023-05-23T10:03:01.339Z,100.00
2023-05-23T10:05:33.552Z,100.00
2023-05-23T10:08:03.182Z,100.00
2023-05-23T10:10:34.071Z,100.00
2023-05-23T10:13:06.030Z,100.00
2023-05-23T10:15:39.278Z,100.00
2023-05-23T10:18:39.997Z,100.00
2023-05-23T10:21:15.870Z,100.00
2023-05-23T10:23:47.999Z,100.00
2023-05-23T10:26:18.067Z,99.89
2023-05-23T10:28:47.512Z,94.68
2023-05-23T10:31:14.383Z,100.00
2023-05-23T10:33:48.202Z,100.00
2023-05-23T10:36:35.021Z,100.00
2023-05-23T10:39:40.558Z,100.00
2023-05-23T10:42:22.970Z,100.00
2023-05-23T10:44:49.663Z,100.00
2023-05-23T10:47:29.287Z,100.00
2023-05-23T10:49:56.126Z,100.00
2023-05-23T10:52:29.377Z,100.00
2023-05-23T10:54:58.909Z,100.00
2023-05-23T10:57:29.455Z,98.41
2023-05-23T10:59:56.374Z,99.21
2023-05-23T11:02:28.854Z,97.79
2023-05-23T11:05:24.020Z,100.00
2023-05-23T11:08:14.706Z,100.00
2023-05-23T11:10:56.890Z,100.00
2023-05-23T11:13:23.951Z,100.00
2023-05-23T11:15:50.991Z,100.00
2023-05-23T11:18:23.156Z,100.00
2023-05-23T11:20:54.279Z,100.00
2023-05-23T11:23:22.862Z,100.00
2023-05-23T11:25:52.255Z,100.00
2023-05-23T11:28:19.937Z,100.00
2023-05-23T11:30:50.615Z,100.00
2023-05-23T11:33:19.078Z,100.00
2023-05-23T11:35:49.341Z,100.00
2023-05-23T11:38:18.304Z,100.00
2023-05-23T11:40:47.280Z,100.00
2023-05-23T11:43:16.961Z,100.00
2023-05-23T11:45:47.847Z,100.00
2023-05-23T11:48:17.146Z,100.00
2023-05-23T11:50:54.741Z,100.00
2023-05-23T11:53:25.328Z,100.00
2023-05-23T11:55:55.523Z,100.00
2023-05-23T11:58:26.776Z,100.00
2023-05-23T12:00:59.499Z,100.00
2023-05-23T12:03:26.357Z,100.00
2023-05-23T12:05:55.241Z,100.00
2023-05-23T12:08:22.504Z,100.00
2023-05-23T12:11:02.216Z,100.00
2023-05-23T12:13:30.648Z,100.00
2023-05-23T12:16:00.184Z,100.00
2023-05-23T12:18:33.375Z,100.00
2023-05-23T12:21:06.600Z,100.00
2023-05-23T12:23:35.270Z,100.00
2023-05-23T12:26:07.573Z,100.00
2023-05-23T12:28:45.903Z,100.00
2023-05-23T12:31:21.053Z,100.00
2023-05-23T12:33:50.045Z,100.00
2023-05-23T12:36:25.357Z,100.00
2023-05-23T12:38:52.274Z,100.00
2023-05-23T12:41:20.394Z,100.00
2023-05-23T12:43:52.145Z,100.00
2023-05-23T12:46:22.242Z,100.00
2023-05-23T12:48:50.774Z,100.00
2023-05-23T12:51:18.103Z,100.00
2023-05-23T12:53:45.128Z,100.00
2023-05-23T12:56:12.385Z,100.00
2023-05-23T12:58:39.929Z,100.00
2023-05-23T13:01:07.851Z,100.00
2023-05-23T13:03:35.174Z,100.00
2023-05-23T13:06:03.013Z,100.00
2023-05-23T13:08:29.808Z,100.00
2023-05-23T13:10:57.406Z,100.00
2023-05-23T13:13:24.374Z,100.00
2023-05-23T13:15:51.766Z,100.00
2023-05-23T13:18:19.190Z,100.00
2023-05-23T13:20:46.858Z,100.00
2023-05-23T13:23:14.742Z,100.00
2023-05-23T13:25:42.215Z,100.00
2023-05-23T13:28:09.266Z,100.00
2023-05-23T13:30:36.215Z,100.00
2023-05-23T13:33:03.374Z,100.00
2023-05-23T13:35:33.428Z,100.00
2023-05-23T13:38:02.202Z,100.00
2023-05-23T13:40:29.512Z,100.00
2023-05-23T13:42:56.574Z,100.00
2023-05-23T13:45:23.432Z,100.00
2023-05-23T13:47:50.290Z,100.00
2023-05-23T13:50:18.625Z,100.00
2023-05-23T13:52:49.268Z,100.00
2023-05-23T13:55:19.283Z,100.00
2023-05-23T13:57:47.035Z,100.00
2023-05-23T14:00:14.545Z,100.00
2023-05-23T14:02:41.354Z,100.00
2023-05-23T14:05:08.899Z,100.00
2023-05-23T14:07:36.594Z,100.00
2023-05-23T14:10:06.111Z,100.00
2023-05-23T14:12:33.771Z,100.00
2023-05-23T14:15:01.240Z,100.00
2023-05-23T14:17:28.234Z,100.00
2023-05-23T14:19:59.059Z,100.00
2023-05-23T14:22:27.233Z,100.00
2023-05-23T14:24:53.947Z,100.00
2023-05-23T14:27:20.681Z,100.00
2023-05-23T14:29:48.940Z,100.00
2023-05-23T14:32:15.846Z,100.00
2023-05-23T14:34:42.740Z,100.00
2023-05-23T14:37:09.582Z,100.00
2023-05-23T14:39:36.370Z,100.00
2023-05-23T14:42:03.924Z,100.00
2023-05-23T14:44:31.050Z,100.00
2023-05-23T14:46:58.090Z,100.00
2023-05-23T14:49:25.190Z,100.00
2023-05-23T14:51:52.563Z,100.00
2023-05-23T14:54:19.972Z,100.00
2023-05-23T14:56:50.525Z,100.00
2023-05-23T14:59:19.641Z,100.00
2023-05-23T15:01:46.753Z,100.00
2023-05-23T15:04:15.560Z,100.00
2023-05-23T15:06:43.553Z,100.00
2023-05-23T15:09:10.793Z,100.00
2023-05-23T15:11:39.101Z,100.00
2023-05-23T15:14:06.160Z,100.00
2023-05-23T15:16:35.260Z,100.00
2023-05-23T15:19:02.290Z,100.00
2023-05-23T15:21:29.144Z,100.00
2023-05-23T15:23:56.053Z,100.00
2023-05-23T15:26:26.918Z,100.00
2023-05-23T15:28:54.886Z,100.00
2023-05-23T15:31:22.831Z,100.00
2023-05-23T15:33:49.838Z,100.00
2023-05-23T15:36:16.748Z,100.00
2023-05-23T15:38:45.105Z,100.00
2023-05-23T15:41:13.304Z,100.00
2023-05-23T15:43:40.154Z,100.00
2023-05-23T15:46:07.185Z,100.00
2023-05-23T15:48:34.113Z,100.00
2023-05-23T15:51:01.031Z,100.00
2023-05-23T15:53:29.320Z,100.00
2023-05-23T15:55:57.058Z,100.00
2023-05-23T15:58:23.728Z,100.00
2023-05-23T16:00:50.642Z,100.00
2023-05-23T16:03:18.731Z,100.00
2023-05-23T16:05:45.534Z,100.00
2023-05-23T16:08:12.206Z,100.00
2023-05-23T16:10:40.279Z,100.00
2023-05-23T16:13:09.704Z,100.00
2023-05-23T16:15:36.718Z,95.22
2023-05-23T16:18:06.310Z,91.27
2023-05-23T16:20:35.026Z,90.13
2023-05-23T16:23:01.844Z,85.27
2023-05-23T16:25:31.782Z,86.35
2023-05-23T16:28:00.152Z,85.61
2023-05-23T16:30:28.626Z,96.60
2023-05-23T16:32:57.701Z,94.45
2023-05-23T16:35:42.392Z,97.04
2023-05-23T16:38:11.458Z,97.75
2023-05-23T16:40:38.467Z,100.00
2023-05-23T16:43:05.488Z,95.56
2023-05-23T16:45:32.612Z,93.27
2023-05-23T16:48:01.542Z,94.46
2023-05-23T16:50:28.881Z,92.51
2023-05-23T16:52:58.350Z,94.57
2023-05-23T16:55:26.131Z,95.91
2023-05-23T16:57:53.388Z,100.00
2023-05-23T17:00:21.450Z,98.55
2023-05-23T17:02:49.450Z,100.00
2023-05-23T17:05:16.502Z,100.00
2023-05-23T17:07:43.411Z,100.00
2023-05-23T17:10:11.143Z,100.00
2023-05-23T17:12:37.796Z,100.00
2023-05-23T17:15:07.288Z,100.00
2023-05-23T17:17:33.952Z,100.00
2023-05-23T17:20:01.119Z,100.00
2023-05-23T17:22:27.897Z,100.00
2023-05-23T17:24:56.814Z,100.00
2023-05-23T17:27:24.314Z,100.00
2023-05-23T17:29:51.305Z,100.00
2023-05-23T17:32:20.321Z,100.00
2023-05-23T17:34:50.029Z,100.00
2023-05-23T17:37:16.795Z,100.00
2023-05-23T17:39:44.057Z,100.00
2023-05-23T17:42:12.807Z,100.00
2023-05-23T17:44:44.306Z,100.00
2023-05-23T17:47:12.656Z,100.00
2023-05-23T17:49:43.063Z,100.00
2023-05-23T17:52:15.880Z,100.00
2023-05-23T17:54:44.436Z,100.00
2023-05-23T17:57:12.469Z,100.00
2023-05-23T17:59:39.597Z,100.00
2023-05-23T18:02:08.905Z,100.00
2023-05-23T18:04:35.854Z,100.00
2023-05-23T18:07:04.041Z,100.00
2023-05-23T18:09:31.111Z,100.00
2023-05-23T18:12:00.491Z,100.00
2023-05-23T18:14:27.338Z,100.00
2023-05-23T18:16:54.011Z,100.00
2023-05-23T18:19:20.794Z,100.00
2023-05-23T18:21:47.581Z,100.00
2023-05-23T18:24:14.424Z,100.00
2023-05-23T18:26:43.206Z,100.00
2023-05-23T18:29:10.314Z,100.00
2023-05-23T18:31:37.159Z,100.00
2023-05-23T18:34:21.173Z,100.00
2023-05-23T18:36:47.987Z,100.00
2023-05-23T18:39:19.405Z,100.00
2023-05-23T18:41:47.222Z,100.00
2023-05-23T18:44:13.939Z,100.00
2023-05-23T18:46:40.715Z,100.00
2023-05-23T18:49:07.486Z,100.00
2023-05-23T18:51:34.230Z,100.00
2023-05-23T18:54:01.106Z,100.00
2023-05-23T18:56:27.817Z,100.00
2023-05-23T18:58:54.477Z,100.00
2023-05-23T19:01:21.531Z,100.00
2023-05-23T19:03:48.560Z,100.00
2023-05-23T19:06:18.179Z,100.00
2023-05-23T19:08:44.950Z,100.00
2023-05-23T19:11:11.597Z,100.00
2023-05-23T19:13:38.381Z,100.00
2023-05-23T19:16:05.285Z,100.00
2023-05-23T19:18:32.273Z,100.00
2023-05-23T19:20:59.842Z,100.00
2023-05-23T19:23:28.989Z,100.00
2023-05-23T19:25:57.391Z,100.00
2023-05-23T19:28:25.792Z,100.00
2023-05-23T19:30:52.843Z,100.00
2023-05-23T19:33:22.691Z,100.00
2023-05-23T19:35:53.218Z,100.00
2023-05-23T19:38:25.086Z,100.00
2023-05-23T19:40:53.056Z,100.00
2023-05-23T19:43:21.107Z,100.00
2023-05-23T19:45:49.022Z,100.00
2023-05-23T19:48:17.271Z,100.00
2023-05-23T19:50:46.269Z,100.00
2023-05-23T19:53:15.028Z,100.00
2023-05-23T19:55:43.446Z,100.00
2023-05-23T19:58:12.782Z,100.00
2023-05-23T20:00:41.027Z,100.00
2023-05-23T20:03:13.240Z,100.00
2023-05-23T20:05:41.556Z,100.00
2023-05-23T20:08:13.944Z,100.00
2023-05-23T20:10:43.995Z,100.00
2023-05-23T20:13:16.197Z,100.00
2023-05-23T20:15:44.574Z,100.00
2023-05-23T20:18:11.643Z,100.00
2023-05-23T20:20:38.476Z,100.00
2023-05-23T20:23:07.634Z,100.00
2023-05-23T20:25:36.188Z,100.00
2023-05-23T20:28:03.010Z,100.00
2023-05-23T20:30:31.513Z,100.00
2023-05-23T20:32:59.859Z,100.00
2023-05-23T20:35:27.868Z,100.00
2023-05-23T20:37:56.382Z,100.00
2023-05-23T20:40:26.399Z,100.00
2023-05-23T20:42:53.854Z,100.00
2023-05-23T20:45:22.616Z,100.00
2023-05-23T20:47:54.533Z,100.00
2023-05-23T20:50:26.407Z,100.00
2023-05-23T20:52:58.906Z,100.00
2023-05-23T20:55:29.171Z,100.00
2023-05-23T20:58:00.680Z,100.00
2023-05-23T21:00:32.039Z,100.00
2023-05-23T21:02:59.039Z,100.00
2023-05-23T21:05:25.972Z,100.00
2023-05-23T21:07:54.400Z,100.00
2023-05-23T21:10:23.049Z,100.00
2023-05-23T21:12:51.109Z,100.00
2023-05-23T21:15:19.047Z,100.00
2023-05-23T21:17:47.142Z,100.00
2023-05-23T21:20:16.327Z,100.00
2023-05-23T21:22:45.454Z,100.00
2023-05-23T21:25:13.735Z,100.00
2023-05-23T21:27:42.505Z,100.00
2023-05-23T21:30:10.740Z,100.00
2023-05-23T21:32:37.811Z,100.00
2023-05-23T21:35:06.503Z,100.00
2023-05-23T21:37:33.478Z,100.00
2023-05-23T21:40:00.884Z,100.00
2023-05-23T21:42:27.769Z,100.00
2023-05-23T21:44:56.826Z,100.00
2023-05-23T21:47:25.733Z,100.00
2023-05-23T21:49:53.957Z,100.00
2023-05-23T21:52:23.144Z,100.00
2023-05-23T21:54:51.113Z,100.00
2023-05-23T21:57:18.249Z,100.00
2023-05-23T21:59:46.439Z,100.00
2023-05-23T22:02:14.843Z,100.00
2023-05-23T22:04:43.172Z,100.00
2023-05-23T22:07:11.399Z,100.00
2023-05-23T22:09:39.750Z,100.00
2023-05-23T22:12:07.675Z,100.00
2023-05-23T22:14:35.153Z,100.00
2023-05-23T22:17:02.564Z,100.00
2023-05-23T22:19:30.659Z,100.00
2023-05-23T22:21:59.352Z,100.00
2023-05-23T22:24:27.898Z,100.00
2023-05-23T22:26:56.283Z,100.00
2023-05-23T22:29:24.825Z,100.00
2023-05-23T22:31:52.015Z,100.00
2023-05-23T22:34:23.129Z,100.00
2023-05-23T22:36:50.733Z,100.00
2023-05-23T22:39:19.630Z,100.00
2023-05-23T22:41:48.479Z,100.00
2023-05-23T22:44:15.610Z,100.00
2023-05-23T22:46:43.274Z,100.00
2023-05-23T22:49:10.847Z,100.00
2023-05-23T22:51:39.875Z,100.00
2023-05-23T22:54:07.100Z,100.00
2023-05-23T22:56:35.105Z,100.00
2023-05-23T22:59:02.097Z,100.00
2023-05-23T23:01:30.373Z,100.00
2023-05-23T23:03:58.125Z,100.00
2023-05-23T23:06:25.441Z,100.00
2023-05-23T23:08:52.854Z,100.00
2023-05-23T23:11:19.820Z,100.00
2023-05-23T23:13:47.769Z,100.00
2023-05-23T23:16:16.041Z,100.00
2023-05-23T23:18:43.628Z,100.00
2023-05-23T23:21:10.486Z,100.00
2023-05-23T23:23:38.371Z,100.00
2023-05-23T23:26:05.050Z,100.00
2023-05-23T23:28:31.908Z,100.00
2023-05-23T23:33:42.009Z,100.00
2023-05-23T23:36:09.586Z,100.00
2023-05-23T23:38:38.766Z,100.00
2023-05-23T23:41:05.862Z,100.00
2023-05-23T23:43:33.369Z,100.00
2023-05-23T23:46:00.725Z,100.00
2023-05-23T23:48:28.302Z,100.00
2023-05-23T23:50:56.645Z,100.00
2023-05-23T23:53:23.996Z,100.00
2023-05-23T23:55:51.322Z,100.00
2023-05-23T23:58:18.896Z,100.00
